createdAt,value
2023-03-15T00:01:55.703Z,5.90
2023-03-15T00:04:23.279Z,8.20
2023-03-15T00:06:50.902Z,8.00
2023-03-15T00:09:18.536Z,6.20
2023-03-15T00:11:46.088Z,6.60
2023-03-15T00:14:13.654Z,6.60
2023-03-15T00:16:41.220Z,4.50
2023-03-15T00:19:10.403Z,4.80
2023-03-15T00:21:37.932Z,3.10
2023-03-15T00:24:06.176Z,1.70
2023-03-15T00:26:33.776Z,1.60
2023-03-15T00:29:01.333Z,1.40
2023-03-15T00:31:29.281Z,1.50
2023-03-15T00:33:56.906Z,1.30
2023-03-15T00:36:25.304Z,1.40
2023-03-15T00:38:55.360Z,1.60
2023-03-15T00:41:23.665Z,1.40
2023-03-15T00:43:52.064Z,1.00
2023-03-15T00:46:19.953Z,1.50
2023-03-15T00:48:49.743Z,1.20
2023-03-15T00:51:20.488Z,1.10
2023-03-15T00:53:49.277Z,1.00
2023-03-15T00:56:22.933Z,1.30
2023-03-15T00:58:51.838Z,1.10
2023-03-15T01:01:22.723Z,1.10
2023-03-15T01:03:50.558Z,1.20
2023-03-15T01:06:24.316Z,1.60
2023-03-15T01:08:52.120Z,1.00
2023-03-15T01:11:23.003Z,1.10
2023-03-15T01:13:55.511Z,1.50
2023-03-15T01:16:24.059Z,1.30
2023-03-15T01:18:51.706Z,1.40
2023-03-15T01:21:19.964Z,1.70
2023-03-15T01:23:47.852Z,1.10
2023-03-15T01:26:16.655Z,1.90
2023-03-15T01:28:44.829Z,2.00
2023-03-15T01:31:24.644Z,1.60
2023-03-15T01:33:52.899Z,2.20
2023-03-15T01:36:20.742Z,2.40
2023-03-15T01:38:48.497Z,2.70
2023-03-15T01:41:17.695Z,2.10
2023-03-15T01:43:45.746Z,1.80
2023-03-15T01:46:26.145Z,2.20
2023-03-15T01:49:06.979Z,1.30
2023-03-15T01:51:39.411Z,2.00
2023-03-15T01:54:09.310Z,1.90
2023-03-15T01:56:41.325Z,2.00
2023-03-15T01:59:15.951Z,2.10
2023-03-15T02:01:43.903Z,1.80
2023-03-15T02:04:17.369Z,2.10
2023-03-15T02:06:47.605Z,2.50
2023-03-15T02:09:18.732Z,2.20
2023-03-15T02:11:46.883Z,2.70
2023-03-15T02:14:15.396Z,2.00
2023-03-15T02:16:43.030Z,2.20
2023-03-15T02:19:25.589Z,1.70
2023-03-15T02:22:10.992Z,2.80
2023-03-15T02:24:46.453Z,2.50
2023-03-15T02:27:14.400Z,2.70
2023-03-15T02:29:42.152Z,2.50
2023-03-15T02:32:09.874Z,2.50
2023-03-15T02:34:37.493Z,2.30
2023-03-15T02:37:05.118Z,2.20
2023-03-15T02:39:32.699Z,2.60
2023-03-15T02:42:00.398Z,2.50
2023-03-15T02:44:32.487Z,2.90
2023-03-15T02:47:05.616Z,2.20
2023-03-15T02:49:39.435Z,2.60
2023-03-15T02:52:07.374Z,1.60
2023-03-15T02:54:35.263Z,2.20
2023-03-15T02:57:03.592Z,2.30
2023-03-15T02:59:31.188Z,2.50
2023-03-15T03:01:58.761Z,1.80
2023-03-15T03:04:26.444Z,2.40
2023-03-15T03:06:54.017Z,2.60
2023-03-15T03:09:21.641Z,2.70
2023-03-15T03:11:49.374Z,2.30
2023-03-15T03:14:16.958Z,2.60
2023-03-15T03:16:44.588Z,2.00
2023-03-15T03:19:12.572Z,2.10
2023-03-15T03:21:40.548Z,1.80
2023-03-15T03:24:08.163Z,2.70
2023-03-15T03:26:35.872Z,2.40
2023-03-15T03:29:04.700Z,3.10
2023-03-15T03:31:32.398Z,2.50
2023-03-15T03:34:00.314Z,2.00
2023-03-15T03:36:28.055Z,3.00
2023-03-15T03:38:55.621Z,2.30
2023-03-15T03:41:23.374Z,2.20
2023-03-15T03:43:50.940Z,2.00
2023-03-15T03:46:18.786Z,2.40
2023-03-15T03:48:46.422Z,2.50
2023-03-15T03:51:13.985Z,1.90
2023-03-15T03:53:41.575Z,2.40
2023-03-15T03:56:09.341Z,2.90
2023-03-15T03:58:36.949Z,1.90
2023-03-15T04:01:05.199Z,2.50
2023-03-15T04:03:32.796Z,1.70
2023-03-15T04:06:00.668Z,2.10
2023-03-15T04:08:28.239Z,2.90
2023-03-15T04:10:57.556Z,2.50
2023-03-15T04:13:25.926Z,2.90
2023-03-15T04:15:53.578Z,1.70
2023-03-15T04:18:21.131Z,2.60
2023-03-15T04:20:48.963Z,2.10
2023-03-15T04:23:16.971Z,1.90
2023-03-15T04:25:48.822Z,3.30
2023-03-15T04:28:17.278Z,2.40
2023-03-15T04:30:45.652Z,3.00
2023-03-15T04:33:13.305Z,2.40
2023-03-15T04:35:40.941Z,2.80
2023-03-15T04:38:09.094Z,2.50
2023-03-15T04:40:36.998Z,3.70
2023-03-15T04:43:05.835Z,3.00
2023-03-15T04:45:33.678Z,2.60
2023-03-15T04:48:02.282Z,2.80
2023-03-15T04:50:30.521Z,3.00
2023-03-15T04:52:58.633Z,2.60
2023-03-15T04:55:26.406Z,4.20
2023-03-15T04:57:54.006Z,2.70
2023-03-15T05:00:21.764Z,3.40
2023-03-15T05:02:49.496Z,2.50
2023-03-15T05:05:17.188Z,2.80
2023-03-15T05:07:44.780Z,3.60
2023-03-15T05:10:12.390Z,2.40
2023-03-15T05:12:40.113Z,2.80
2023-03-15T05:15:08.432Z,3.30
2023-03-15T05:17:36.157Z,3.10
2023-03-15T05:20:04.112Z,3.30
2023-03-15T05:22:31.710Z,2.40
2023-03-15T05:24:59.311Z,3.20
2023-03-15T05:27:26.884Z,2.20
2023-03-15T05:29:54.463Z,2.40
2023-03-15T05:32:22.071Z,2.40
2023-03-15T05:34:49.863Z,3.60
2023-03-15T05:37:17.495Z,3.00
2023-03-15T05:39:45.056Z,2.90
2023-03-15T05:42:12.607Z,3.50
2023-03-15T05:44:40.188Z,3.00
2023-03-15T05:47:07.897Z,2.90
2023-03-15T05:49:35.483Z,3.80
2023-03-15T05:52:03.240Z,3.20
2023-03-15T05:54:30.876Z,2.90
2023-03-15T05:56:58.420Z,3.00
2023-03-15T05:59:25.992Z,2.60
2023-03-15T06:01:53.606Z,3.80
2023-03-15T06:04:21.210Z,3.90
2023-03-15T06:06:49.235Z,2.30
2023-03-15T06:09:16.840Z,2.80
2023-03-15T06:11:44.439Z,2.60
2023-03-15T06:14:12.068Z,2.90
2023-03-15T06:16:39.877Z,3.20
2023-03-15T06:19:07.497Z,3.50
2023-03-15T06:21:35.090Z,3.20
2023-03-15T06:24:02.714Z,3.20
2023-03-15T06:26:30.342Z,3.80
2023-03-15T06:28:57.964Z,2.50
2023-03-15T06:31:25.542Z,3.10
2023-03-15T06:33:53.172Z,2.90
2023-03-15T06:36:20.895Z,3.20
2023-03-15T06:38:48.608Z,3.00
2023-03-15T06:41:16.317Z,2.80
2023-03-15T06:43:43.880Z,2.50
2023-03-15T06:46:11.527Z,2.50
2023-03-15T06:48:39.123Z,2.40
2023-03-15T06:51:06.681Z,5.50
2023-03-15T06:53:34.266Z,8.90
2023-03-15T06:56:01.903Z,4.40
2023-03-15T06:58:29.494Z,5.60
2023-03-15T07:00:57.280Z,8.40
2023-03-15T07:03:24.860Z,12.20
2023-03-15T07:05:52.520Z,6.20
2023-03-15T07:08:25.240Z,2.10
2023-03-15T07:10:53.674Z,2.70
2023-03-15T07:13:21.341Z,2.70
2023-03-15T07:15:56.333Z,3.50
2023-03-15T07:18:23.975Z,3.00
2023-03-15T07:20:59.166Z,3.00
2023-03-15T07:23:26.891Z,2.70
2023-03-15T07:25:55.850Z,3.00
2023-03-15T07:28:25.428Z,3.10
2023-03-15T07:30:58.657Z,2.80
2023-03-15T07:33:27.528Z,9.10
2023-03-15T07:35:55.417Z,3.20
2023-03-15T07:38:25.446Z,3.10
2023-03-15T07:40:53.008Z,3.30
2023-03-15T07:43:20.876Z,3.10
2023-03-15T07:45:48.939Z,1.50
2023-03-15T07:48:16.925Z,2.60
2023-03-15T07:50:45.521Z,3.90
2023-03-15T07:53:13.447Z,6.60
2023-03-15T07:55:41.200Z,12.30
2023-03-15T07:58:08.789Z,7.50
2023-03-15T08:00:36.410Z,6.40
2023-03-15T08:03:04.383Z,3.70
2023-03-15T08:05:31.970Z,22.50
2023-03-15T08:07:59.661Z,5.10
2023-03-15T08:10:27.413Z,2.20
2023-03-15T08:12:55.056Z,2.10
2023-03-15T08:15:22.735Z,3.60
2023-03-15T08:17:50.383Z,2.80
2023-03-15T08:20:18.226Z,1.70
2023-03-15T08:22:47.687Z,1.80
2023-03-15T08:25:18.303Z,2.40
2023-03-15T08:27:45.959Z,1.70
2023-03-15T08:30:15.217Z,1.40
2023-03-15T08:32:45.309Z,1.80
2023-03-15T08:37:44.066Z,2.00
2023-03-15T08:40:12.221Z,2.00
2023-03-15T08:42:39.969Z,4.40
2023-03-15T08:45:08.587Z,3.00
2023-03-15T08:47:36.675Z,4.20
2023-03-15T08:50:07.179Z,11.90
2023-03-15T08:52:34.755Z,5.00
2023-03-15T08:55:02.584Z,44.10
2023-03-15T08:57:31.156Z,35.70
2023-03-15T09:00:04.323Z,4.90
2023-03-15T09:02:31.973Z,4.90
2023-03-15T09:04:59.729Z,2.40
2023-03-15T09:07:27.569Z,1.90
2023-03-15T09:09:55.180Z,1.80
2023-03-15T09:12:22.788Z,1.50
2023-03-15T09:14:50.383Z,1.70
2023-03-15T09:17:17.939Z,1.30
2023-03-15T09:19:45.496Z,1.50
2023-03-15T09:22:23.392Z,2.00
2023-03-15T09:24:51.916Z,1.70
2023-03-15T09:27:19.579Z,2.30
2023-03-15T09:29:47.356Z,2.00
2023-03-15T09:32:14.926Z,1.60
2023-03-15T09:34:42.575Z,1.70
2023-03-15T09:37:10.337Z,1.90
2023-03-15T09:39:38.067Z,1.80
2023-03-15T09:42:19.278Z,1.70
2023-03-15T09:45:07.204Z,1.90
2023-03-15T09:47:53.123Z,2.00
2023-03-15T09:50:35.728Z,1.80
2023-03-15T09:53:26.983Z,3.30
2023-03-15T09:55:54.809Z,1.90
2023-03-15T09:58:28.621Z,2.10
2023-03-15T10:01:06.467Z,1.90
2023-03-15T10:03:46.778Z,2.60
2023-03-15T10:06:24.567Z,2.00
2023-03-15T10:08:58.039Z,2.80
2023-03-15T10:11:42.654Z,2.80
2023-03-15T10:14:22.268Z,2.80
2023-03-15T10:16:51.230Z,2.40
2023-03-15T10:19:48.418Z,1.70
2023-03-15T10:22:35.183Z,2.20
2023-03-15T10:25:20.912Z,1.50
2023-03-15T10:28:02.436Z,2.10
2023-03-15T10:30:32.725Z,1.40
2023-03-15T10:33:21.916Z,1.50
2023-03-15T10:35:51.005Z,1.50
2023-03-15T10:38:24.225Z,2.00
2023-03-15T10:40:57.615Z,2.00
2023-03-15T10:43:26.372Z,1.80
2023-03-15T10:46:04.315Z,1.60
2023-03-15T10:48:34.505Z,1.40
2023-03-15T10:51:15.478Z,2.60
2023-03-15T10:54:17.762Z,1.50
2023-03-15T10:56:50.827Z,1.80
2023-03-15T10:59:21.431Z,1.70
2023-03-15T11:01:52.408Z,1.90
2023-03-15T11:04:23.308Z,1.90
2023-03-15T11:06:59.161Z,1.80
2023-03-15T11:09:31.281Z,1.70
2023-03-15T11:12:01.316Z,1.30
2023-03-15T11:14:35.256Z,1.60
2023-03-15T11:17:05.051Z,1.30
2023-03-15T11:19:39.206Z,1.20
2023-03-15T11:22:12.134Z,1.30
2023-03-15T11:24:40.467Z,1.50
2023-03-15T11:27:17.245Z,1.30
2023-03-15T11:29:55.924Z,1.60
2023-03-15T11:32:26.375Z,1.40
2023-03-15T11:34:59.950Z,1.40
2023-03-15T11:37:35.568Z,1.70
2023-03-15T11:40:18.518Z,1.80
2023-03-15T11:43:13.666Z,2.00
2023-03-15T11:45:59.029Z,1.50
2023-03-15T11:48:31.554Z,1.80
2023-03-15T11:51:01.140Z,1.60
2023-03-15T11:53:39.032Z,1.60
2023-03-15T11:56:27.435Z,1.80
2023-03-15T11:59:07.632Z,1.50
2023-03-15T12:01:35.666Z,1.70
2023-03-15T12:04:25.170Z,1.90
2023-03-15T12:06:54.937Z,2.00
2023-03-15T12:09:34.353Z,1.80
2023-03-15T12:12:05.911Z,1.70
2023-03-15T12:14:37.445Z,1.40
2023-03-15T12:17:23.895Z,2.10
2023-03-15T12:20:12.729Z,1.60
2023-03-15T12:22:43.773Z,1.80
2023-03-15T12:25:24.270Z,2.20
2023-03-15T12:27:57.209Z,2.10
2023-03-15T12:30:32.762Z,1.80
2023-03-15T12:33:02.726Z,1.60
2023-03-15T12:35:40.606Z,1.90
2023-03-15T12:38:16.098Z,1.90
2023-03-15T12:40:52.314Z,2.40
2023-03-15T12:43:43.546Z,3.00
2023-03-15T12:46:46.839Z,2.70
2023-03-15T12:49:28.683Z,2.30
2023-03-15T12:51:58.203Z,2.00
2023-03-15T12:54:37.241Z,1.90
2023-03-15T12:57:06.036Z,1.60
2023-03-15T12:59:50.188Z,2.20
2023-03-15T13:02:41.638Z,1.40
2023-03-15T13:05:10.766Z,1.70
2023-03-15T13:07:52.346Z,1.80
2023-03-15T13:10:31.158Z,2.00
2023-03-15T13:13:10.884Z,1.90
2023-03-15T13:15:51.672Z,3.30
2023-03-15T13:18:23.198Z,2.50
2023-03-15T13:20:59.484Z,2.30
2023-03-15T13:23:30.375Z,1.80
2023-03-15T13:26:15.094Z,1.80
2023-03-15T13:29:01.004Z,1.50
2023-03-15T13:31:31.424Z,2.50
2023-03-15T13:34:13.952Z,1.90
2023-03-15T13:37:00.408Z,2.20
2023-03-15T13:39:33.235Z,2.10
2023-03-15T13:42:07.093Z,2.00
2023-03-15T13:44:34.671Z,4.90
2023-03-15T13:47:02.237Z,2.20
2023-03-15T13:49:34.311Z,2.10
2023-03-15T13:52:06.463Z,2.30
2023-03-15T13:54:34.650Z,1.80
2023-03-15T13:57:21.956Z,2.60
2023-03-15T13:59:53.333Z,2.30
2023-03-15T14:02:34.971Z,2.20
2023-03-15T14:05:06.439Z,1.70
2023-03-15T14:07:37.629Z,2.50
2023-03-15T14:10:27.269Z,1.80
2023-03-15T14:12:56.046Z,2.80
2023-03-15T14:15:36.116Z,2.30
2023-03-15T14:18:06.836Z,1.60
2023-03-15T14:20:40.195Z,2.20
2023-03-15T14:23:18.887Z,2.00
2023-03-15T14:26:03.576Z,2.40
2023-03-15T14:28:32.878Z,2.40
2023-03-15T14:31:01.262Z,1.80
2023-03-15T14:33:34.654Z,2.30
2023-03-15T14:36:07.594Z,3.60
2023-03-15T14:38:38.881Z,2.60
2023-03-15T14:44:01.501Z,2.90
2023-03-15T14:46:31.640Z,2.40
2023-03-15T14:51:28.763Z,2.40
2023-03-15T14:53:58.948Z,2.50
2023-03-15T14:56:26.976Z,2.80
2023-03-15T14:58:54.516Z,2.30
2023-03-15T15:01:27.138Z,2.50
2023-03-15T15:03:58.878Z,1.90
2023-03-15T15:06:28.314Z,2.30
2023-03-15T15:08:57.726Z,2.00
2023-03-15T15:11:28.651Z,2.20
2023-03-15T15:13:56.210Z,2.30
2023-03-15T15:16:24.147Z,3.20
2023-03-15T15:18:51.738Z,2.60
2023-03-15T15:21:33.670Z,1.80
2023-03-15T15:24:04.289Z,2.10
2023-03-15T15:26:32.986Z,2.50
2023-03-15T15:29:00.734Z,1.80
2023-03-15T15:31:29.573Z,2.20
2023-03-15T15:33:57.271Z,4.00
2023-03-15T15:36:32.611Z,2.00
2023-03-15T15:39:00.531Z,1.90
2023-03-15T15:41:29.034Z,2.00
2023-03-15T15:43:56.872Z,2.30
2023-03-15T15:46:25.803Z,2.00
2023-03-15T15:48:53.466Z,1.90
2023-03-15T15:51:31.067Z,2.40
2023-03-15T15:54:00.749Z,2.70
2023-03-15T15:56:38.177Z,1.90
2023-03-15T15:59:09.833Z,2.10
2023-03-15T16:01:43.475Z,2.10
2023-03-15T16:04:21.029Z,2.60
2023-03-15T16:06:53.688Z,2.70
2023-03-15T16:09:22.727Z,2.00
2023-03-15T16:11:50.499Z,2.50
2023-03-15T16:14:18.329Z,2.20
2023-03-15T16:16:45.934Z,1.70
2023-03-15T16:19:14.551Z,2.40
2023-03-15T16:21:45.233Z,2.60
2023-03-15T16:24:22.953Z,2.20
2023-03-15T16:26:53.193Z,2.60
2023-03-15T16:29:26.436Z,2.10
2023-03-15T16:31:55.923Z,2.80
2023-03-15T16:34:26.710Z,3.10
2023-03-15T16:36:54.286Z,2.80
2023-03-15T16:39:22.782Z,2.60
2023-03-15T16:41:50.426Z,2.60
2023-03-15T16:44:20.820Z,2.90
2023-03-15T16:46:49.044Z,3.00
2023-03-15T16:49:16.736Z,2.70
2023-03-15T16:51:53.115Z,3.30
2023-03-15T16:54:38.206Z,3.10
2023-03-15T16:57:21.930Z,2.70
2023-03-15T16:59:50.406Z,3.70
2023-03-15T17:02:23.929Z,3.20
2023-03-15T17:04:51.963Z,3.70
2023-03-15T17:07:25.455Z,3.40
2023-03-15T17:09:53.207Z,4.20
2023-03-15T17:12:27.760Z,4.50
2023-03-15T17:14:58.492Z,4.50
2023-03-15T17:17:28.342Z,4.20
2023-03-15T17:19:55.978Z,3.80
2023-03-15T17:22:25.385Z,3.40
2023-03-15T17:24:53.515Z,3.40
2023-03-15T17:27:39.257Z,3.30
2023-03-15T17:30:17.148Z,3.70
2023-03-15T17:32:45.281Z,3.80
2023-03-15T17:35:14.036Z,3.90
2023-03-15T17:37:42.360Z,4.10
2023-03-15T17:40:23.547Z,4.30
2023-03-15T17:42:52.743Z,4.70
2023-03-15T17:45:23.896Z,4.60
2023-03-15T17:47:54.033Z,4.40
2023-03-15T17:50:27.340Z,4.40
2023-03-15T17:52:57.738Z,2.80
2023-03-15T17:55:29.829Z,3.60
2023-03-15T17:57:57.427Z,4.00
2023-03-15T18:00:25.667Z,4.00
2023-03-15T18:02:55.993Z,4.30
2023-03-15T18:05:30.176Z,3.70
2023-03-15T18:07:59.615Z,4.00
2023-03-15T18:10:35.475Z,3.60
2023-03-15T18:13:04.237Z,3.90
2023-03-15T18:15:32.137Z,4.30
2023-03-15T18:18:03.602Z,4.10
2023-03-15T18:20:33.042Z,4.70
2023-03-15T18:23:01.061Z,3.70
2023-03-15T18:25:31.455Z,4.20
2023-03-15T18:30:29.976Z,3.70
2023-03-15T18:32:58.126Z,3.40
2023-03-15T18:35:28.035Z,3.50
2023-03-15T18:37:55.754Z,4.50
2023-03-15T18:40:26.284Z,4.70
2023-03-15T18:42:54.514Z,4.30
2023-03-15T18:45:31.504Z,3.90
2023-03-15T18:47:59.539Z,4.20
2023-03-15T18:50:28.670Z,4.10
2023-03-15T18:52:56.552Z,4.80
2023-03-15T18:55:24.281Z,4.60
2023-03-15T18:57:54.311Z,5.20
2023-03-15T19:00:25.423Z,6.40
2023-03-15T19:02:55.381Z,6.70
2023-03-15T19:05:24.726Z,6.40
2023-03-15T19:07:52.455Z,4.80
2023-03-15T19:10:23.427Z,5.70
2023-03-15T19:12:51.529Z,5.50
2023-03-15T19:15:20.806Z,6.10
2023-03-15T19:17:50.958Z,6.40
2023-03-15T19:20:20.309Z,6.30
2023-03-15T19:22:49.289Z,5.80
2023-03-15T19:25:17.099Z,6.60
2023-03-15T19:27:45.045Z,5.70
2023-03-15T19:30:15.607Z,6.20
2023-03-15T19:32:44.807Z,7.00
2023-03-15T19:35:12.515Z,8.10
2023-03-15T19:37:40.251Z,8.10
2023-03-15T19:40:09.989Z,6.90
2023-03-15T19:42:40.530Z,8.80
2023-03-15T19:47:36.630Z,10.10
2023-03-15T19:50:05.220Z,9.80
2023-03-15T19:52:33.064Z,8.40
2023-03-15T19:55:01.052Z,9.10
2023-03-15T19:57:29.015Z,7.30
2023-03-15T19:59:57.637Z,7.70
2023-03-15T20:02:25.232Z,9.00
2023-03-15T20:04:52.842Z,9.20
2023-03-15T20:07:20.676Z,10.00
2023-03-15T20:09:48.691Z,10.80
2023-03-15T20:12:16.288Z,12.60
2023-03-15T20:14:43.990Z,14.50
2023-03-15T20:17:11.678Z,12.10
2023-03-15T20:19:39.339Z,12.40
2023-03-15T20:22:07.995Z,12.60
2023-03-15T20:24:35.698Z,10.30
2023-03-15T20:27:03.612Z,12.80
2023-03-15T20:29:31.273Z,13.10
2023-03-15T20:31:59.867Z,15.50
2023-03-15T20:34:27.478Z,15.20
2023-03-15T20:36:56.170Z,13.30
2023-03-15T20:39:23.983Z,14.60
2023-03-15T20:41:52.084Z,15.10
2023-03-15T20:44:19.820Z,13.70
2023-03-15T20:46:48.094Z,13.30
2023-03-15T20:49:15.701Z,13.10
2023-03-15T20:51:43.276Z,12.90
2023-03-15T20:54:11.111Z,13.90
2023-03-15T20:56:38.827Z,15.80
2023-03-15T20:59:06.424Z,15.30
2023-03-15T21:01:34.016Z,15.60
2023-03-15T21:04:01.665Z,10.60
2023-03-15T21:06:29.508Z,16.70
2023-03-15T21:08:59.788Z,11.40
2023-03-15T21:11:27.386Z,10.70
2023-03-15T21:13:55.016Z,10.60
2023-03-15T21:16:23.909Z,10.20
2023-03-15T21:18:52.583Z,11.00
2023-03-15T21:21:20.801Z,14.30
2023-03-15T21:23:48.464Z,15.80
2023-03-15T21:26:16.091Z,15.90
2023-03-15T21:28:43.730Z,14.90
2023-03-15T21:31:11.423Z,17.10
2023-03-15T21:33:39.327Z,17.90
2023-03-15T21:36:07.400Z,15.60
2023-03-15T21:38:35.162Z,14.00
2023-03-15T21:41:07.124Z,20.00
2023-03-15T21:43:35.653Z,17.50
2023-03-15T21:46:06.526Z,16.30
2023-03-15T21:48:35.347Z,16.30
2023-03-15T21:51:03.051Z,16.70
2023-03-15T21:53:31.691Z,16.30
2023-03-15T21:56:00.212Z,17.80
2023-03-15T21:58:28.526Z,13.70
2023-03-15T22:01:07.379Z,15.40
2023-03-15T22:03:36.629Z,14.20
2023-03-15T22:06:04.352Z,14.70
2023-03-15T22:08:31.995Z,13.90
2023-03-15T22:10:59.752Z,13.90
2023-03-15T22:13:27.475Z,17.50
2023-03-15T22:15:55.056Z,15.90
2023-03-15T22:18:23.242Z,12.20
2023-03-15T22:20:51.308Z,14.30
2023-03-15T22:23:18.960Z,15.10
2023-03-15T22:25:46.543Z,10.70
2023-03-15T22:28:14.506Z,13.90
2023-03-15T22:30:42.427Z,10.40
2023-03-15T22:33:10.037Z,11.20
2023-03-15T22:35:37.706Z,10.20
2023-03-15T22:38:05.299Z,13.00
2023-03-15T22:40:32.835Z,11.70
2023-03-15T22:43:00.451Z,11.60
2023-03-15T22:45:28.700Z,11.40
2023-03-15T22:47:56.369Z,9.40
2023-03-15T22:50:24.426Z,12.60
2023-03-15T22:52:52.160Z,12.90
2023-03-15T22:55:19.732Z,12.70
2023-03-15T22:57:47.893Z,12.20
2023-03-15T23:00:19.847Z,11.70
2023-03-15T23:02:47.482Z,14.50
2023-03-15T23:05:15.216Z,13.00
2023-03-15T23:07:42.898Z,15.10
2023-03-15T23:10:13.872Z,13.60
2023-03-15T23:12:41.457Z,14.20
2023-03-15T23:15:09.636Z,11.80
2023-03-15T23:17:37.241Z,12.10
2023-03-15T23:20:05.224Z,14.80
2023-03-15T23:22:32.854Z,11.10
2023-03-15T23:25:00.462Z,12.20
2023-03-15T23:27:28.113Z,13.20
2023-03-15T23:29:55.679Z,12.40
2023-03-15T23:32:24.082Z,12.70
2023-03-15T23:34:52.400Z,13.50
2023-03-15T23:37:20.496Z,13.20
2023-03-15T23:39:48.236Z,13.00
2023-03-15T23:42:16.011Z,14.10
2023-03-15T23:44:43.590Z,12.20
2023-03-15T23:47:11.293Z,12.80
2023-03-15T23:49:38.842Z,10.90
2023-03-15T23:52:06.698Z,7.90
2023-03-15T23:54:34.812Z,12.10
2023-03-15T23:57:02.405Z,9.00
2023-03-15T23:59:30.003Z,8.90
